createdAt,value
2022-12-11T04:57:17.134Z,299.44
2022-12-11T04:58:18.015Z,333.67
2022-12-11T04:59:19.166Z,351.03
2022-12-11T05:00:20.074Z,297.17
2022-12-11T05:01:21.870Z,209.98
2022-12-11T05:02:22.921Z,161.45
2022-12-11T05:03:24.148Z,281.42
2022-12-11T05:04:25.573Z,356.67
2022-12-11T05:05:26.936Z,363.25
2022-12-11T05:06:27.781Z,265.20
2022-12-11T05:07:28.985Z,304.63
2022-12-11T05:08:29.840Z,338.58
2022-12-11T05:09:31.006Z,307.63
2022-12-11T05:10:31.854Z,218.40
2022-12-11T05:11:33.290Z,220.68
2022-12-11T05:12:34.849Z,312.80
2022-12-11T05:13:36.030Z,259.17
2022-12-11T05:14:36.885Z,215.98
2022-12-11T05:15:38.806Z,242.38
2022-12-11T05:16:39.674Z,294.75
2022-12-11T05:17:40.857Z,270.90
2022-12-11T05:18:42.001Z,231.93
2022-12-11T05:19:43.144Z,372.23
2022-12-11T05:20:44.265Z,347.60
2022-12-11T05:21:45.397Z,410.85
2022-12-11T05:22:46.593Z,385.55
2022-12-11T05:23:47.442Z,390.73
2022-12-11T05:24:48.613Z,363.38
2022-12-11T05:25:51.280Z,382.75
2022-12-11T05:26:52.425Z,416.60
2022-12-11T05:27:53.979Z,280.27
2022-12-11T05:28:55.267Z,218.98
2022-12-11T05:29:59.409Z,409.85
2022-12-11T05:31:02.342Z,307.80
2022-12-11T05:32:03.275Z,274.67
2022-12-11T05:33:04.479Z,363.70
2022-12-11T05:34:05.456Z,432.27
2022-12-11T05:35:07.000Z,250.68
2022-12-11T05:36:08.149Z,266.77
2022-12-11T05:37:09.665Z,356.88
2022-12-11T05:38:10.551Z,342.83
2022-12-11T05:39:11.978Z,342.43
2022-12-11T05:40:12.873Z,380.88
2022-12-11T05:41:16.684Z,250.82
2022-12-11T05:42:17.841Z,426.58
2022-12-11T05:43:19.371Z,399.50
2022-12-11T05:44:20.546Z,255.25
2022-12-11T05:45:21.381Z,306.20
2022-12-11T05:46:23.882Z,242.98
2022-12-11T05:47:24.861Z,386.15
2022-12-11T05:48:26.041Z,290.13
2022-12-11T05:49:30.831Z,317.30
2022-12-11T05:50:32.435Z,227.68
2022-12-11T05:51:34.205Z,158.60
2022-12-11T05:52:35.359Z,196.07
2022-12-11T05:53:37.006Z,254.10
2022-12-11T05:54:38.210Z,340.92
2022-12-11T05:55:39.049Z,292.33
2022-12-11T05:56:40.263Z,400.00
2022-12-11T05:57:41.328Z,290.30
2022-12-11T05:58:43.701Z,353.55
2022-12-11T05:59:44.696Z,250.40
2022-12-11T06:00:46.484Z,370.07
2022-12-11T06:01:47.563Z,396.33
2022-12-11T06:02:48.911Z,352.02
2022-12-11T06:03:49.943Z,412.77
2022-12-11T06:04:51.101Z,256.07
2022-12-11T06:05:51.965Z,284.85
2022-12-11T06:06:53.488Z,340.10
2022-12-11T06:07:54.441Z,319.35
2022-12-11T06:08:56.544Z,354.75
2022-12-11T06:09:57.397Z,286.00
2022-12-11T06:10:59.041Z,432.70
2022-12-11T06:11:59.904Z,237.20
2022-12-11T06:13:01.448Z,292.27
2022-12-11T06:14:03.455Z,333.02
2022-12-11T06:16:09.522Z,152.55
2022-12-11T06:17:10.728Z,126.10
2022-12-11T06:18:11.635Z,246.27
2022-12-11T06:19:13.297Z,297.90
2022-12-11T06:20:14.193Z,345.52
2022-12-11T06:21:16.941Z,221.70
2022-12-11T06:22:17.905Z,299.55
2022-12-11T06:23:19.071Z,410.97
2022-12-11T06:24:20.062Z,331.30
2022-12-11T06:25:21.222Z,240.00
2022-12-11T06:26:22.116Z,162.43
2022-12-11T06:27:23.730Z,184.53
2022-12-11T06:28:24.607Z,156.20
2022-12-11T06:29:26.457Z,181.77
2022-12-11T06:30:38.862Z,257.25
2022-12-11T06:31:40.819Z,149.93
2022-12-11T06:32:42.239Z,169.00
2022-12-11T06:33:43.517Z,147.77
2022-12-11T06:34:44.548Z,138.70
2022-12-11T06:35:45.782Z,261.07
2022-12-11T06:36:46.612Z,308.33
2022-12-11T06:37:47.826Z,134.77
2022-12-11T06:38:49.053Z,287.27
2022-12-11T06:39:50.245Z,131.82
2022-12-11T06:40:53.869Z,158.43
2022-12-11T06:41:55.041Z,196.65
2022-12-11T06:42:55.865Z,122.18
2022-12-11T06:43:57.626Z,149.53
2022-12-11T06:44:59.226Z,180.93
2022-12-11T06:46:04.170Z,172.15
2022-12-11T06:47:05.691Z,138.60
2022-12-11T06:48:06.537Z,136.32
2022-12-11T06:49:07.722Z,183.65
2022-12-11T06:50:09.066Z,267.75
2022-12-11T06:51:10.854Z,77.68
2022-12-11T06:52:18.017Z,93.97
2022-12-11T06:53:19.701Z,91.65
2022-12-11T06:54:24.681Z,117.70
2022-12-11T06:55:25.886Z,113.68
2022-12-11T06:56:26.722Z,190.65
2022-12-11T06:57:27.845Z,167.98
2022-12-11T06:58:28.715Z,233.00
2022-12-11T06:59:29.888Z,142.70
2022-12-11T07:00:31.536Z,138.98
2022-12-11T07:01:32.722Z,247.60
2022-12-11T07:02:33.674Z,109.40
2022-12-11T07:03:34.923Z,136.75
2022-12-11T07:04:35.748Z,147.15
2022-12-11T07:05:36.960Z,136.90
2022-12-11T07:06:37.793Z,119.55
2022-12-11T07:07:38.950Z,99.03
2022-12-11T07:08:40.038Z,114.40
2022-12-11T07:09:41.205Z,178.05
2022-12-11T07:10:42.133Z,211.45
2022-12-11T07:11:43.284Z,135.63
2022-12-11T07:12:44.117Z,181.30
2022-12-11T07:13:45.673Z,186.80
2022-12-11T07:14:46.544Z,172.15
2022-12-11T07:15:48.458Z,129.80
2022-12-11T07:16:50.430Z,174.57
2022-12-11T07:18:52.323Z,160.43
2022-12-11T07:19:53.455Z,146.25
2022-12-11T07:20:54.305Z,209.43
2022-12-11T07:21:55.452Z,175.00
2022-12-11T07:22:56.280Z,266.77
2022-12-11T07:23:58.185Z,238.07
2022-12-11T07:26:04.191Z,147.90
2022-12-11T07:27:05.363Z,190.25
2022-12-11T07:28:06.499Z,101.28
2022-12-11T07:29:07.548Z,170.15
2022-12-11T07:30:10.031Z,111.37
2022-12-11T07:31:14.209Z,165.85
2022-12-11T07:32:15.536Z,220.43
2022-12-11T07:33:16.648Z,253.60
2022-12-11T07:34:17.833Z,181.50
2022-12-11T07:35:18.733Z,156.48
2022-12-11T07:36:19.980Z,115.45
2022-12-11T07:37:20.828Z,240.23
2022-12-11T07:38:22.177Z,322.60
2022-12-11T07:39:23.334Z,354.67
2022-12-11T07:40:24.170Z,214.68
2022-12-11T07:41:27.009Z,380.60
2022-12-11T07:42:27.847Z,192.30
2022-12-11T07:43:29.014Z,141.35
2022-12-11T07:44:29.863Z,157.25
2022-12-11T07:45:31.271Z,114.78
2022-12-11T07:46:33.584Z,326.45
2022-12-11T07:47:34.470Z,127.72
2022-12-11T07:48:35.722Z,136.53
2022-12-11T07:49:37.583Z,213.82
2022-12-11T07:50:40.017Z,155.13
2022-12-11T07:51:41.883Z,149.95
2022-12-11T07:52:43.785Z,191.00
2022-12-11T07:53:47.392Z,144.85
2022-12-11T07:54:48.219Z,219.40
2022-12-11T07:55:49.617Z,178.60
2022-12-11T07:56:53.744Z,283.58
2022-12-11T07:57:55.449Z,169.05
2022-12-11T07:58:58.118Z,125.90
2022-12-11T07:59:59.290Z,131.10
2022-12-11T08:01:01.122Z,154.05
2022-12-11T08:02:03.094Z,134.70
2022-12-11T08:04:05.379Z,111.15
2022-12-11T08:05:07.018Z,232.63
2022-12-11T08:06:08.681Z,219.57
2022-12-11T08:07:09.889Z,191.93
2022-12-11T08:08:11.088Z,123.20
2022-12-11T08:09:20.673Z,250.38
2022-12-11T08:10:22.333Z,232.30
2022-12-11T08:11:23.496Z,445.67
2022-12-11T08:12:24.363Z,227.02
2022-12-11T08:13:25.493Z,227.00
2022-12-11T08:14:26.355Z,293.50
2022-12-11T08:15:27.576Z,273.13
2022-12-11T08:16:28.987Z,214.15
2022-12-11T08:17:35.167Z,253.50
2022-12-11T08:18:40.025Z,232.55
2022-12-11T08:19:41.332Z,204.18
2022-12-11T08:20:42.227Z,178.68
2022-12-11T08:21:43.608Z,187.27
2022-12-11T08:22:44.477Z,379.10
2022-12-11T08:23:45.902Z,396.33
2022-12-11T08:24:47.262Z,275.55
2022-12-11T08:25:48.102Z,161.43
2022-12-11T08:26:49.268Z,250.60
2022-12-11T08:27:50.147Z,289.67
2022-12-11T08:28:51.433Z,192.82
2022-12-11T08:29:52.626Z,158.38
2022-12-11T08:30:53.496Z,214.82
2022-12-11T08:31:54.729Z,447.98
2022-12-11T08:32:56.308Z,227.15
2022-12-11T08:33:57.795Z,453.67
2022-12-11T08:34:58.938Z,243.80
2022-12-11T08:36:01.815Z,385.75
2022-12-11T08:37:03.083Z,274.60
2022-12-11T08:38:03.965Z,245.43
2022-12-11T08:39:05.176Z,236.30
2022-12-11T08:40:06.792Z,318.50
2022-12-11T08:41:08.420Z,185.55
2022-12-11T08:42:09.604Z,323.65
2022-12-11T08:43:10.473Z,305.50
2022-12-11T08:44:16.257Z,312.38
2022-12-11T08:45:17.653Z,236.52
2022-12-11T08:46:18.929Z,222.70
2022-12-11T08:47:19.969Z,223.43
2022-12-11T08:48:21.822Z,206.93
2022-12-11T08:49:23.045Z,264.48
2022-12-11T08:50:24.753Z,214.30
2022-12-11T08:51:26.547Z,213.35
2022-12-11T08:52:27.696Z,415.63
2022-12-11T08:53:28.998Z,293.13
2022-12-11T08:54:30.273Z,313.65
2022-12-11T08:55:31.718Z,245.82
2022-12-11T08:56:32.578Z,365.65
2022-12-11T08:57:33.714Z,339.27
2022-12-11T08:58:35.397Z,385.88
2022-12-11T08:59:36.241Z,258.42
2022-12-11T09:00:37.541Z,363.57
2022-12-11T09:01:38.502Z,382.23
2022-12-11T09:02:39.874Z,230.35
2022-12-11T09:03:42.906Z,311.08
2022-12-11T09:04:44.134Z,226.48
2022-12-11T09:05:44.961Z,227.23
2022-12-11T09:06:46.161Z,242.15
2022-12-11T09:07:47.173Z,227.32
2022-12-11T09:08:52.471Z,394.37
2022-12-11T09:09:53.811Z,249.35
2022-12-11T09:10:55.000Z,328.77
2022-12-11T09:11:55.978Z,248.52
2022-12-11T09:12:57.162Z,188.65
2022-12-11T09:14:03.533Z,490.50
2022-12-11T09:15:06.641Z,136.75
2022-12-11T09:16:09.001Z,138.95
2022-12-11T09:17:10.233Z,117.53
2022-12-11T09:18:11.065Z,146.57
2022-12-11T09:19:13.647Z,372.33
2022-12-11T09:20:14.871Z,314.10
2022-12-11T09:21:17.276Z,162.23
2022-12-11T09:22:18.629Z,378.85
2022-12-11T09:23:19.469Z,127.82
2022-12-11T09:24:20.685Z,156.20
2022-12-11T09:25:21.874Z,170.57
2022-12-11T09:26:22.978Z,300.20
2022-12-11T09:27:24.101Z,212.98
2022-12-11T09:28:25.220Z,252.38
2022-12-11T09:29:26.384Z,316.20
2022-12-11T09:30:27.225Z,253.70
2022-12-11T09:31:29.822Z,401.70
2022-12-11T09:32:30.994Z,206.07
2022-12-11T09:33:31.834Z,182.55
2022-12-11T09:34:33.945Z,275.17
2022-12-11T09:35:34.808Z,179.45
2022-12-11T09:36:37.863Z,176.60
2022-12-11T09:37:38.686Z,90.38
2022-12-11T09:38:40.004Z,105.07
2022-12-11T09:39:41.193Z,116.07
2022-12-11T09:40:42.631Z,270.80
2022-12-11T09:41:48.984Z,284.48
2022-12-11T09:42:52.751Z,252.52
2022-12-11T09:43:58.619Z,235.77
2022-12-11T09:45:01.463Z,192.75
2022-12-11T09:46:04.515Z,278.70
2022-12-11T09:47:12.169Z,199.98
2022-12-11T09:48:14.706Z,157.43
2022-12-11T09:49:23.165Z,282.25
2022-12-11T09:50:25.745Z,196.70
2022-12-11T09:51:29.200Z,251.90
2022-12-11T09:52:34.239Z,222.18
2022-12-11T09:53:35.403Z,257.05
2022-12-11T09:54:37.157Z,245.38
2022-12-11T09:55:41.838Z,194.75
2022-12-11T09:56:47.260Z,128.60
2022-12-11T09:57:52.914Z,232.38
2022-12-11T09:59:00.858Z,169.13
2022-12-11T10:00:14.233Z,215.35
2022-12-11T10:01:19.677Z,235.32
2022-12-11T10:02:25.410Z,319.67
2022-12-11T10:03:45.289Z,190.32
2022-12-11T10:04:49.830Z,349.88
2022-12-11T10:05:57.325Z,215.98
2022-12-11T10:07:04.622Z,235.00
2022-12-11T10:08:10.441Z,224.88
2022-12-11T10:09:16.041Z,227.52
2022-12-11T10:10:20.375Z,353.40
2022-12-11T10:11:28.676Z,178.82
2022-12-11T10:12:37.635Z,193.57
2022-12-11T10:13:45.544Z,176.02
2022-12-11T10:14:51.796Z,212.63
2022-12-11T10:15:56.215Z,147.50
2022-12-11T10:16:59.376Z,154.13
2022-12-11T10:18:04.933Z,266.55
2022-12-11T10:19:12.025Z,130.40
2022-12-11T10:20:18.223Z,124.78
2022-12-11T12:41:18.842Z,82.42
2022-12-11T12:42:24.836Z,81.82
2022-12-11T12:43:42.605Z,88.65
2022-12-11T12:44:50.153Z,79.72
2022-12-11T12:45:53.685Z,80.38
2022-12-11T12:46:57.184Z,60.63
2022-12-11T12:47:58.345Z,64.15
2022-12-11T12:49:00.865Z,81.47
2022-12-11T12:50:04.353Z,70.25
2022-12-11T12:51:05.991Z,108.78
2022-12-11T12:52:11.633Z,80.20
2022-12-11T12:53:15.909Z,75.03
2022-12-11T12:54:17.943Z,77.78
2022-12-11T12:56:24.524Z,57.30
2022-12-11T12:57:25.408Z,69.75
2022-12-11T12:58:28.082Z,60.87
2022-12-11T12:59:29.379Z,66.15
2022-12-11T13:00:34.176Z,77.57
2022-12-11T13:01:38.078Z,64.38
2022-12-11T13:02:47.408Z,66.40
2022-12-11T13:03:50.621Z,64.75
2022-12-11T13:04:56.795Z,51.50
2022-12-11T13:05:59.355Z,58.03
2022-12-11T13:07:10.278Z,59.65
2022-12-11T13:08:11.563Z,78.13
2022-12-11T13:09:15.449Z,63.40
2022-12-11T13:10:24.071Z,58.10
2022-12-11T13:11:32.177Z,58.60
2022-12-11T13:12:38.999Z,61.13
2022-12-11T13:13:41.419Z,59.42
2022-12-11T13:14:42.335Z,51.83
2022-12-11T13:15:43.706Z,57.77
2022-12-11T13:16:45.334Z,47.78
2022-12-11T13:17:46.703Z,57.50
2022-12-11T13:18:48.337Z,61.10
2022-12-11T13:19:49.825Z,53.38
2022-12-11T13:20:51.523Z,42.15
2022-12-11T13:21:56.590Z,42.60
2022-12-11T13:23:16.343Z,43.78
2022-12-11T13:24:24.927Z,43.95
2022-12-11T13:25:27.975Z,45.67
2022-12-11T13:26:29.651Z,52.00
2022-12-11T13:27:37.411Z,45.42
2022-12-11T13:28:50.305Z,49.28
2022-12-11T13:29:51.196Z,50.28
2022-12-11T13:30:59.722Z,53.10
2022-12-11T13:32:02.027Z,42.63
2022-12-11T13:33:05.232Z,51.65
2022-12-11T13:34:08.094Z,43.13
2022-12-11T13:35:15.243Z,48.45
2022-12-11T13:36:30.426Z,42.88
2022-12-11T13:37:33.166Z,40.00
2022-12-11T13:38:34.930Z,42.45
2022-12-11T13:39:39.158Z,53.08
2022-12-11T13:40:41.163Z,48.10
2022-12-11T13:42:47.908Z,43.72
2022-12-11T13:43:49.200Z,42.72
2022-12-11T13:44:50.902Z,39.33
2022-12-11T13:45:53.684Z,44.28
2022-12-11T13:46:56.165Z,48.10
2022-12-11T13:47:58.257Z,44.15
2022-12-11T13:49:01.126Z,59.45
2022-12-11T13:50:07.316Z,45.08
2022-12-11T13:51:15.426Z,44.92
2022-12-11T13:52:17.357Z,51.45
2022-12-11T13:54:19.398Z,41.00
2022-12-11T13:55:22.677Z,53.75
2022-12-11T13:56:23.886Z,41.08
2022-12-11T13:57:25.721Z,45.45
2022-12-11T13:58:28.124Z,45.08
2022-12-11T13:59:31.405Z,45.85
2022-12-11T14:00:32.984Z,44.63
2022-12-11T14:01:34.404Z,45.83
2022-12-11T14:02:38.521Z,41.75
2022-12-11T14:03:40.374Z,37.78
2022-12-11T14:04:41.707Z,32.63
2022-12-11T14:05:42.604Z,41.00
2022-12-11T14:06:43.827Z,36.10
2022-12-11T14:07:47.390Z,39.00
2022-12-11T14:08:49.452Z,32.40
2022-12-11T14:10:51.701Z,41.67
2022-12-11T14:11:56.858Z,42.22
2022-12-11T14:13:00.554Z,37.53
2022-12-11T14:14:04.081Z,34.47
2022-12-11T14:15:05.584Z,37.40
2022-12-11T14:16:06.631Z,37.75
2022-12-11T14:17:10.972Z,37.38
2022-12-11T14:18:14.647Z,41.75
2022-12-11T14:19:17.792Z,44.03
2022-12-11T14:20:20.469Z,43.60
2022-12-11T14:21:22.352Z,39.90
2022-12-11T14:22:24.785Z,46.78
2022-12-11T14:23:26.706Z,40.83
2022-12-11T14:25:28.907Z,38.42
2022-12-11T14:26:30.737Z,34.53
2022-12-11T14:27:32.912Z,41.78
2022-12-11T14:28:36.877Z,38.55
2022-12-11T14:29:38.710Z,41.30
2022-12-11T14:30:44.909Z,36.33
2022-12-11T14:31:47.118Z,37.03
2022-12-11T14:32:48.525Z,41.72
2022-12-11T14:33:51.536Z,38.63
2022-12-11T14:34:53.347Z,45.38
2022-12-11T14:35:55.267Z,39.97
2022-12-11T14:36:57.414Z,40.58
2022-12-11T14:38:00.472Z,43.28
2022-12-11T14:39:02.180Z,46.10
2022-12-11T14:40:06.480Z,45.45
2022-12-11T14:41:12.078Z,42.03
2022-12-11T14:42:15.229Z,43.28
2022-12-11T14:43:20.837Z,43.03
2022-12-11T14:44:23.735Z,42.17
2022-12-11T14:45:28.502Z,41.72
2022-12-11T14:46:34.102Z,43.60
2022-12-11T14:47:38.387Z,41.88
2022-12-11T14:48:44.570Z,46.33
2022-12-11T14:49:48.255Z,55.10
2022-12-11T14:50:51.181Z,47.72
2022-12-11T14:51:53.160Z,42.22
2022-12-11T14:53:55.565Z,59.47
2022-12-11T14:55:00.085Z,51.42
2022-12-11T14:56:02.639Z,45.50
2022-12-11T14:57:05.913Z,47.63
2022-12-11T14:58:13.766Z,40.28
2022-12-11T14:59:18.629Z,43.50
2022-12-11T15:00:21.407Z,47.33
2022-12-11T15:01:24.140Z,50.72
2022-12-11T15:02:27.248Z,41.92
2022-12-11T15:03:30.621Z,49.00
2022-12-11T15:04:32.723Z,49.85
2022-12-11T15:05:40.396Z,63.40
2022-12-11T15:06:43.303Z,55.58
2022-12-11T15:07:53.724Z,40.45
2022-12-11T15:08:55.371Z,49.28
2022-12-11T15:09:56.556Z,42.03
2022-12-11T15:11:02.123Z,40.35
2022-12-11T15:12:09.726Z,38.72
2022-12-11T15:13:13.243Z,53.17
2022-12-11T15:14:16.002Z,39.22
2022-12-11T15:15:17.660Z,43.70
2022-12-11T15:16:19.713Z,46.03
2022-12-11T15:17:22.280Z,34.55
2022-12-11T15:18:24.137Z,49.00
2022-12-11T15:19:28.515Z,45.95
2022-12-11T15:20:30.197Z,51.22
2022-12-11T15:21:31.631Z,45.67
2022-12-11T15:22:32.923Z,51.58
2022-12-11T15:23:38.070Z,50.15
2022-12-11T15:24:39.806Z,44.63
2022-12-11T15:25:49.532Z,47.53
2022-12-11T15:26:50.715Z,47.65
2022-12-11T15:27:52.450Z,55.28
2022-12-11T15:28:59.397Z,49.80
2022-12-11T15:30:00.616Z,45.50
2022-12-11T15:31:04.146Z,47.97
2022-12-11T15:32:17.774Z,42.25
2022-12-11T15:33:21.332Z,46.65
2022-12-11T15:34:22.910Z,43.88
2022-12-11T15:35:25.184Z,45.20
2022-12-11T15:36:29.952Z,35.47
2022-12-11T15:37:31.950Z,39.10
2022-12-11T15:39:33.758Z,44.70
2022-12-11T15:40:34.652Z,37.58
2022-12-11T15:41:36.074Z,40.97
2022-12-11T15:42:39.102Z,43.85
2022-12-11T15:43:39.966Z,39.45
2022-12-11T15:44:41.746Z,37.50
2022-12-11T15:45:43.006Z,35.83
2022-12-11T15:46:44.229Z,37.92
2022-12-11T15:47:45.769Z,35.75
2022-12-11T15:48:48.188Z,29.83
2022-12-11T15:49:49.327Z,28.98
2022-12-11T15:50:50.458Z,26.83
2022-12-11T15:51:51.702Z,31.38
2022-12-11T15:52:54.166Z,35.03
2022-12-11T15:53:55.310Z,28.40
2022-12-11T15:54:56.130Z,31.45
2022-12-11T15:55:58.520Z,35.10
2022-12-11T15:57:00.974Z,39.88
2022-12-11T15:58:04.247Z,32.00
2022-12-11T15:59:06.520Z,35.58
2022-12-11T16:00:11.254Z,32.38
2022-12-11T16:01:12.500Z,28.88
2022-12-11T16:02:14.166Z,34.55
2022-12-11T16:03:16.998Z,29.20
2022-12-11T16:04:18.949Z,32.60
2022-12-11T16:06:20.852Z,24.73
2022-12-11T16:07:23.101Z,32.67
2022-12-11T16:08:24.330Z,31.60
2022-12-11T16:09:25.578Z,27.25
2022-12-11T16:10:26.997Z,30.33
2022-12-11T16:11:28.324Z,22.48
2022-12-11T16:12:29.226Z,35.42
2022-12-11T16:13:30.361Z,27.30
2022-12-11T16:14:31.196Z,29.67
2022-12-11T16:15:32.413Z,34.63
2022-12-11T16:16:33.639Z,34.05
2022-12-11T16:17:34.521Z,35.15
2022-12-11T16:18:35.657Z,36.05
2022-12-11T16:19:37.449Z,40.17
2022-12-11T16:20:39.553Z,37.80
2022-12-11T19:11:40.917Z,10.44
2022-12-11T19:12:42.453Z,13.63
2022-12-11T19:13:43.612Z,12.45
2022-12-11T19:14:44.756Z,13.55
2022-12-11T19:15:45.914Z,13.55
2022-12-11T19:16:47.141Z,14.70
2022-12-11T19:17:48.278Z,15.13
2022-12-11T19:18:49.437Z,14.00
2022-12-11T19:19:50.280Z,19.85
2022-12-11T19:20:57.702Z,16.20
2022-12-11T19:22:06.021Z,16.67
2022-12-11T19:23:06.893Z,19.08
2022-12-11T19:24:09.129Z,18.50
2022-12-11T19:25:10.729Z,17.23
2022-12-11T19:26:12.525Z,17.63
2022-12-11T19:27:14.386Z,18.13
2022-12-11T19:28:15.709Z,17.20
2022-12-11T19:29:18.678Z,17.55
2022-12-11T19:30:19.973Z,16.75
2022-12-11T19:31:21.922Z,17.10
2022-12-11T19:32:22.813Z,19.42
2022-12-11T19:33:23.958Z,17.42
2022-12-11T19:34:25.314Z,17.02
2022-12-11T19:35:26.150Z,15.45
2022-12-11T19:36:28.208Z,15.65
2022-12-11T19:38:30.053Z,14.15
2022-12-11T19:39:30.924Z,14.57
2022-12-11T19:40:32.087Z,14.98
2022-12-11T19:41:33.275Z,19.90
2022-12-11T19:42:34.817Z,17.85
2022-12-11T19:43:36.085Z,15.30
2022-12-11T19:44:36.920Z,14.25
2022-12-11T19:45:38.272Z,14.68
2022-12-11T19:46:39.258Z,14.18
2022-12-11T19:47:40.429Z,15.77
2022-12-11T19:48:41.705Z,16.23
2022-12-11T19:49:43.018Z,14.68
2022-12-11T19:50:44.205Z,14.65
2022-12-11T19:51:45.346Z,14.45
2022-12-11T19:52:46.737Z,17.58
2022-12-11T19:53:48.117Z,14.20
2022-12-11T19:54:49.257Z,16.52
2022-12-11T19:55:50.277Z,17.30
2022-12-11T19:56:51.413Z,15.90
2022-12-11T19:57:53.281Z,16.92
2022-12-11T19:58:54.127Z,17.17
2022-12-11T19:59:57.413Z,14.35
2022-12-11T20:00:59.241Z,15.07
2022-12-11T20:02:00.628Z,15.52
2022-12-11T20:03:01.849Z,15.30
2022-12-11T20:04:04.409Z,12.93
2022-12-11T20:05:05.794Z,13.43
2022-12-11T20:06:07.769Z,12.82
2022-12-11T20:08:35.660Z,12.95
2022-12-11T20:09:32.884Z,10.95
2022-12-11T20:10:33.978Z,12.40
2022-12-11T20:11:35.127Z,12.15
2022-12-11T20:12:36.647Z,11.45
2022-12-11T20:13:39.939Z,11.07
2022-12-11T20:14:41.142Z,12.35
2022-12-11T20:15:42.272Z,11.35
2022-12-11T20:17:10.034Z,11.50
2022-12-11T20:18:04.637Z,12.00
2022-12-11T20:19:05.493Z,13.48
2022-12-11T20:20:07.060Z,12.85
2022-12-11T20:21:09.242Z,11.65
2022-12-11T20:22:10.432Z,11.70
2022-12-11T20:23:11.271Z,13.82
2022-12-11T20:24:12.453Z,11.50
2022-12-11T20:25:13.780Z,12.57
2022-12-11T20:26:16.376Z,16.83
2022-12-11T20:27:17.672Z,13.18
2022-12-11T20:28:18.534Z,14.15
2022-12-11T20:29:20.388Z,15.07
2022-12-11T20:30:22.841Z,13.65
2022-12-11T20:31:24.937Z,13.10
2022-12-11T20:32:26.298Z,14.95
2022-12-11T20:33:27.346Z,18.13
2022-12-11T20:34:28.541Z,15.27
2022-12-11T20:35:29.701Z,16.40
2022-12-11T20:36:30.568Z,16.45
2022-12-11T20:37:32.277Z,17.08
2022-12-11T20:38:34.658Z,14.18
2022-12-11T20:39:35.985Z,16.98
2022-12-11T20:40:36.866Z,18.50
2022-12-11T20:41:37.993Z,18.20
2022-12-11T20:42:39.813Z,19.77
2022-12-11T20:43:41.083Z,16.65
2022-12-11T20:44:48.723Z,18.20
2022-12-11T20:45:50.228Z,19.23
2022-12-11T20:46:51.496Z,20.33
2022-12-11T20:47:52.673Z,15.27
2022-12-11T20:48:54.654Z,24.52
2022-12-11T20:50:58.608Z,22.02
2022-12-11T20:51:59.756Z,16.40
2022-12-11T20:53:00.913Z,13.60
2022-12-11T20:54:02.097Z,13.40
2022-12-11T20:55:03.747Z,21.90
2022-12-11T20:56:08.162Z,16.90
2022-12-11T20:57:09.629Z,28.73
2022-12-11T20:58:10.464Z,18.55
2022-12-11T20:59:11.744Z,16.27
2022-12-11T21:00:16.105Z,15.65
2022-12-11T21:01:18.512Z,15.25
2022-12-11T21:02:19.752Z,13.20
2022-12-11T21:03:20.612Z,10.85
2022-12-11T21:04:21.950Z,13.70
2022-12-11T21:05:22.974Z,14.18
2022-12-11T21:06:25.076Z,13.95
2022-12-11T21:07:26.217Z,13.32
2022-12-11T21:08:27.066Z,14.00
2022-12-11T21:09:28.589Z,12.73
2022-12-11T21:10:29.775Z,12.25
2022-12-11T21:11:30.795Z,13.23
2022-12-11T21:12:31.989Z,11.05
2022-12-11T21:13:33.265Z,12.90
2022-12-11T21:14:34.730Z,12.15
2022-12-11T21:15:36.680Z,13.00
2022-12-11T21:17:38.523Z,10.52
2022-12-11T21:18:40.788Z,12.13
2022-12-11T21:19:41.922Z,11.80
2022-12-11T21:20:43.440Z,11.93
2022-12-11T21:21:44.935Z,12.63
2022-12-11T21:22:46.101Z,11.57
2022-12-11T21:23:47.647Z,11.75
2022-12-11T21:24:48.785Z,11.05
2022-12-11T21:25:49.917Z,10.82
2022-12-11T21:26:51.077Z,12.55
2022-12-11T21:27:51.943Z,11.40
2022-12-11T21:28:53.084Z,10.43
2022-12-11T21:29:53.914Z,11.15
2022-12-11T21:30:59.066Z,10.53
2022-12-11T21:32:00.317Z,8.50
2022-12-11T21:33:01.233Z,10.57
2022-12-11T21:34:03.143Z,9.43
2022-12-11T21:35:04.558Z,10.10
2022-12-11T21:36:06.262Z,9.63
2022-12-11T21:37:07.466Z,8.20
2022-12-11T21:38:09.174Z,8.48
2022-12-11T21:39:11.475Z,11.68
2022-12-11T21:40:13.041Z,9.75
2022-12-11T21:41:14.949Z,14.15
2022-12-11T21:42:16.129Z,10.98
2022-12-11T21:43:17.186Z,10.52
2022-12-11T21:47:01.329Z,11.13
2022-12-11T21:48:02.348Z,9.57
2022-12-11T21:49:03.777Z,10.82
2022-12-11T21:50:05.028Z,10.07
2022-12-11T21:51:06.961Z,9.70
2022-12-11T21:52:08.402Z,10.48
2022-12-11T21:53:09.294Z,10.63
2022-12-11T21:54:13.352Z,14.67
2022-12-11T21:55:14.704Z,13.10
2022-12-11T21:56:17.254Z,12.30
2022-12-11T21:57:24.398Z,12.25
2022-12-11T21:58:27.362Z,12.73
2022-12-11T21:59:31.792Z,9.77
2022-12-11T22:00:34.589Z,10.90
2022-12-11T22:01:37.716Z,9.10
2022-12-11T22:02:41.211Z,9.63
2022-12-11T22:03:42.607Z,10.20
2022-12-11T22:04:46.641Z,9.82
2022-12-11T22:05:47.815Z,9.10
2022-12-11T22:06:48.965Z,8.82
2022-12-11T22:07:49.920Z,9.48
2022-12-11T22:08:51.106Z,8.20
2022-12-11T22:09:52.284Z,9.30
2022-12-11T22:10:53.298Z,9.07
2022-12-11T22:11:58.372Z,8.52
2022-12-11T22:13:00.038Z,12.57
2022-12-11T22:14:00.986Z,11.60
2022-12-11T22:15:02.126Z,11.85
2022-12-11T22:16:03.087Z,11.15
2022-12-11T22:17:04.256Z,10.27
2022-12-11T22:18:06.165Z,8.65
2022-12-11T22:19:07.033Z,8.60
2022-12-11T22:20:08.730Z,9.07
2022-12-11T22:21:09.977Z,9.82
2022-12-11T22:22:11.369Z,9.27
2022-12-11T22:23:12.287Z,9.27
2022-12-11T22:24:13.440Z,10.70
2022-12-11T22:25:14.553Z,11.77
2022-12-11T22:26:16.999Z,11.45
2022-12-11T22:27:23.324Z,9.25
2022-12-11T22:28:24.953Z,8.25
2022-12-11T22:29:25.792Z,9.23
2022-12-11T22:30:27.015Z,9.27
2022-12-11T22:31:28.081Z,6.22
2022-12-11T22:32:29.265Z,7.83
2022-12-11T22:33:30.798Z,6.18
2022-12-11T22:34:31.948Z,6.15
2022-12-11T22:35:32.799Z,6.88
2022-12-11T22:36:33.960Z,5.40
2022-12-11T22:37:35.129Z,6.88
2022-12-11T22:38:36.108Z,5.97
2022-12-11T22:39:37.259Z,5.63
2022-12-11T22:40:38.909Z,6.00
2022-12-11T22:41:41.583Z,5.82
2022-12-11T22:42:43.426Z,6.15
2022-12-11T22:43:44.289Z,6.55
2022-12-11T22:44:45.430Z,7.47
2022-12-11T22:45:46.635Z,11.43
2022-12-11T22:46:50.174Z,7.00
2022-12-11T22:47:51.825Z,6.70
2022-12-11T22:48:53.629Z,7.07
2022-12-11T22:49:54.901Z,6.97
2022-12-11T22:50:55.733Z,8.13
2022-12-11T22:51:57.014Z,7.77
2022-12-11T22:52:57.835Z,7.32
2022-12-11T22:53:59.073Z,8.67
2022-12-11T22:54:59.963Z,6.55
2022-12-11T22:56:03.221Z,6.07
2022-12-11T22:57:04.352Z,7.25
2022-12-11T22:58:05.205Z,6.82
2022-12-11T22:59:06.840Z,8.20
2022-12-11T23:00:08.921Z,7.43
2022-12-11T23:02:11.319Z,6.75
2022-12-11T23:03:12.654Z,5.93
2022-12-11T23:04:14.289Z,6.70
2022-12-11T23:05:15.453Z,7.22
2022-12-11T23:06:17.217Z,7.78
2022-12-11T23:07:18.404Z,6.75
2022-12-11T23:08:19.414Z,6.57
2022-12-11T23:09:20.697Z,5.97
2022-12-11T23:10:21.840Z,7.00
2022-12-11T23:11:23.981Z,7.35
2022-12-11T23:12:25.133Z,8.38
2022-12-11T23:13:26.001Z,6.93
2022-12-11T23:14:27.423Z,8.00
2022-12-11T23:15:28.243Z,9.45
2022-12-11T23:16:29.463Z,9.90
2022-12-11T23:17:30.365Z,11.73
2022-12-11T23:18:32.101Z,12.73
2022-12-11T23:19:34.253Z,13.68
2022-12-11T23:20:35.090Z,13.90
2022-12-11T23:21:36.283Z,12.17
2022-12-11T23:22:37.141Z,13.02
2022-12-11T23:23:38.433Z,13.10
2022-12-11T23:24:39.655Z,11.98
2022-12-11T23:25:40.522Z,11.32
2022-12-11T23:26:41.838Z,11.88
2022-12-11T23:27:42.695Z,10.23
2022-12-11T23:28:44.366Z,12.27
2022-12-11T23:29:45.278Z,11.57
2022-12-11T23:30:46.751Z,12.75
2022-12-11T23:31:47.929Z,11.98
2022-12-11T23:32:48.749Z,13.90
2022-12-11T23:33:50.165Z,11.00
2022-12-11T23:34:51.697Z,10.07
2022-12-11T23:35:52.841Z,10.00
2022-12-11T23:36:53.698Z,10.32
2022-12-11T23:37:54.854Z,11.23
2022-12-11T23:38:55.727Z,9.90
2022-12-11T23:39:56.921Z,10.20
2022-12-11T23:40:57.934Z,9.13
2022-12-11T23:41:59.071Z,9.03